sensor_id;sensor_type;location;lat;lon;timestamp;noise_LAeq;noise_LA_min;noise_LA_max;noise_LA01;noise_LA95
51665;Laerm;37751;52.408;12.536;2023-06-26T00:01:46;6.00;6.00;6.00;;
51665;Laerm;37751;52.408;12.536;2023-06-26T00:04:14;6.00;6.00;6.00;;
51665;Laerm;37751;52.408;12.536;2023-06-26T00:06:42;6.00;6.00;6.00;;
51665;Laerm;37751;52.408;12.536;2023-06-26T00:09:10;6.00;6.00;6.00;;
51665;Laerm;37751;52.408;12.536;2023-06-26T00:11:39;6.00;6.00;6.00;;
51665;Laerm;37751;52.408;12.536;2023-06-26T00:14:07;6.00;6.00;6.00;;
51665;Laerm;37751;52.408;12.536;2023-06-26T00:16:36;6.00;6.00;6.00;;
51665;Laerm;37751;52.408;12.536;2023-06-26T00:19:04;6.00;6.00;6.00;;
51665;Laerm;37751;52.408;12.536;2023-06-26T00:21:31;6.00;6.00;6.00;;
51665;Laerm;37751;52.408;12.536;2023-06-26T00:23:59;6.00;6.00;6.00;;
51665;Laerm;37751;52.408;12.536;2023-06-26T00:26:27;6.00;6.00;6.00;;
51665;Laerm;37751;52.408;12.536;2023-06-26T00:28:55;6.00;6.00;6.00;;
51665;Laerm;37751;52.408;12.536;2023-06-26T00:31:23;6.00;6.00;6.00;;
51665;Laerm;37751;52.408;12.536;2023-06-26T00:33:51;6.00;6.00;6.00;;
51665;Laerm;37751;52.408;12.536;2023-06-26T00:36:18;6.00;6.00;6.00;;
51665;Laerm;37751;52.408;12.536;2023-06-26T00:38:46;6.00;6.00;6.00;;
51665;Laerm;37751;52.408;12.536;2023-06-26T00:41:14;73.71;6.00;102.13;;
51665;Laerm;37751;52.408;12.536;2023-06-26T00:43:42;53.33;42.75;87.22;;
51665;Laerm;37751;52.408;12.536;2023-06-26T00:46:13;52.14;43.59;69.73;;
51665;Laerm;37751;52.408;12.536;2023-06-26T00:48:43;55.97;44.29;71.24;;
51665;Laerm;37751;52.408;12.536;2023-06-26T00:51:13;49.93;43.16;66.34;;
51665;Laerm;37751;52.408;12.536;2023-06-26T00:53:42;52.01;42.82;68.12;;
51665;Laerm;37751;52.408;12.536;2023-06-26T00:56:11;52.70;42.75;68.83;;
51665;Laerm;37751;52.408;12.536;2023-06-26T00:58:39;52.12;43.29;67.28;;
51665;Laerm;37751;52.408;12.536;2023-06-26T01:01:07;54.75;43.35;70.63;;
51665;Laerm;37751;52.408;12.536;2023-06-26T01:03:36;54.92;43.03;72.24;;
51665;Laerm;37751;52.408;12.536;2023-06-26T01:06:07;51.92;44.49;64.98;;
51665;Laerm;37751;52.408;12.536;2023-06-26T01:08:40;54.25;43.76;65.74;;
51665;Laerm;37751;52.408;12.536;2023-06-26T01:11:09;54.56;44.77;71.71;;
51665;Laerm;37751;52.408;12.536;2023-06-26T01:13:37;58.72;44.54;74.33;;
51665;Laerm;37751;52.408;12.536;2023-06-26T01:16:06;55.10;44.09;74.56;;
51665;Laerm;37751;52.408;12.536;2023-06-26T01:18:35;55.33;43.59;75.79;;
51665;Laerm;37751;52.408;12.536;2023-06-26T01:21:05;52.33;43.41;65.59;;
51665;Laerm;37751;52.408;12.536;2023-06-26T01:26:40;52.85;43.41;69.72;;
51665;Laerm;37751;52.408;12.536;2023-06-26T01:29:10;51.76;43.88;66.70;;
51665;Laerm;37751;52.408;12.536;2023-06-26T01:31:39;54.78;43.93;73.64;;
51665;Laerm;37751;52.408;12.536;2023-06-26T01:34:07;47.88;43.65;59.15;;
51665;Laerm;37751;52.408;12.536;2023-06-26T01:36:35;52.56;43.03;70.15;;
51665;Laerm;37751;52.408;12.536;2023-06-26T01:39:05;52.18;44.09;66.71;;
51665;Laerm;37751;52.408;12.536;2023-06-26T01:41:33;54.71;44.49;68.96;;
51665;Laerm;37751;52.408;12.536;2023-06-26T01:44:33;51.56;44.77;68.86;;
51665;Laerm;37751;52.408;12.536;2023-06-26T01:47:04;53.69;45.87;66.86;;
51665;Laerm;37751;52.408;12.536;2023-06-26T01:52:41;54.97;45.83;70.26;;
51665;Laerm;37751;52.408;12.536;2023-06-26T01:55:47;60.03;46.27;81.25;;
51665;Laerm;37751;52.408;12.536;2023-06-26T01:58:17;57.24;44.19;73.42;;
51665;Laerm;37751;52.408;12.536;2023-06-26T02:00:48;57.85;47.73;70.21;;
51665;Laerm;37751;52.408;12.536;2023-06-26T02:03:16;58.23;45.97;72.32;;
51665;Laerm;37751;52.408;12.536;2023-06-26T02:05:44;55.03;45.83;66.42;;
51665;Laerm;37751;52.408;12.536;2023-06-26T02:08:14;57.55;46.04;72.50;;
51665;Laerm;37751;52.408;12.536;2023-06-26T02:10:48;59.18;47.20;71.85;;
51665;Laerm;37751;52.408;12.536;2023-06-26T02:13:17;60.00;47.35;72.66;;
51665;Laerm;37751;52.408;12.536;2023-06-26T02:15:44;58.67;49.31;70.36;;
51665;Laerm;37751;52.408;12.536;2023-06-26T02:18:12;55.83;46.30;67.22;;
51665;Laerm;37751;52.408;12.536;2023-06-26T02:20:40;58.39;48.50;74.48;;
51665;Laerm;37751;52.408;12.536;2023-06-26T02:23:08;58.05;45.43;87.20;;
51665;Laerm;37751;52.408;12.536;2023-06-26T02:25:36;57.87;47.59;69.15;;
51665;Laerm;37751;52.408;12.536;2023-06-26T02:28:04;59.62;48.84;75.58;;
51665;Laerm;37751;52.408;12.536;2023-06-26T02:30:31;60.42;51.51;70.01;;
51665;Laerm;37751;52.408;12.536;2023-06-26T02:33:00;58.21;47.15;69.66;;
51665;Laerm;37751;52.408;12.536;2023-06-26T02:35:29;60.32;49.71;69.44;;
51665;Laerm;37751;52.408;12.536;2023-06-26T02:37:57;61.94;49.80;72.56;;
51665;Laerm;37751;52.408;12.536;2023-06-26T02:40:24;62.98;52.80;77.24;;
51665;Laerm;37751;52.408;12.536;2023-06-26T02:42:53;63.00;55.82;74.87;;
51665;Laerm;37751;52.408;12.536;2023-06-26T02:45:21;63.09;52.99;76.90;;
51665;Laerm;37751;52.408;12.536;2023-06-26T02:47:49;63.90;51.89;76.67;;
51665;Laerm;37751;52.408;12.536;2023-06-26T02:50:17;61.80;50.00;77.79;;
51665;Laerm;37751;52.408;12.536;2023-06-26T02:53:08;63.38;49.70;87.23;;
51665;Laerm;37751;52.408;12.536;2023-06-26T02:55:39;62.29;49.74;87.21;;
51665;Laerm;37751;52.408;12.536;2023-06-26T02:58:07;65.55;53.32;83.42;;
51665;Laerm;37751;52.408;12.536;2023-06-26T03:00:35;63.93;53.24;75.63;;
51665;Laerm;37751;52.408;12.536;2023-06-26T03:03:11;61.09;50.78;71.16;;
51665;Laerm;37751;52.408;12.536;2023-06-26T03:05:40;62.68;48.86;77.16;;
51665;Laerm;37751;52.408;12.536;2023-06-26T03:08:08;63.07;48.22;78.58;;
51665;Laerm;37751;52.408;12.536;2023-06-26T03:10:36;62.76;50.15;75.65;;
51665;Laerm;37751;52.408;12.536;2023-06-26T03:13:06;63.17;51.97;74.87;;
51665;Laerm;37751;52.408;12.536;2023-06-26T03:15:34;64.12;52.80;79.20;;
51665;Laerm;37751;52.408;12.536;2023-06-26T03:18:02;62.04;47.69;75.21;;
51665;Laerm;37751;52.408;12.536;2023-06-26T03:20:30;61.63;51.23;71.30;;
51665;Laerm;37751;52.408;12.536;2023-06-26T03:22:58;63.26;49.78;75.96;;
51665;Laerm;37751;52.408;12.536;2023-06-26T03:25:26;62.79;48.91;75.30;;
51665;Laerm;37751;52.408;12.536;2023-06-26T03:28:05;64.72;49.73;74.36;;
51665;Laerm;37751;52.408;12.536;2023-06-26T03:30:34;62.89;50.24;73.42;;
51665;Laerm;37751;52.408;12.536;2023-06-26T03:33:02;63.30;49.95;75.76;;
51665;Laerm;37751;52.408;12.536;2023-06-26T03:35:30;63.71;51.35;77.16;;
51665;Laerm;37751;52.408;12.536;2023-06-26T03:37:59;62.68;49.29;71.74;;
51665;Laerm;37751;52.408;12.536;2023-06-26T03:40:28;64.49;50.84;76.26;;
51665;Laerm;37751;52.408;12.536;2023-06-26T03:42:56;63.25;48.74;75.93;;
51665;Laerm;37751;52.408;12.536;2023-06-26T03:45:25;62.59;49.63;74.09;;
51665;Laerm;37751;52.408;12.536;2023-06-26T03:47:55;64.77;48.23;74.80;;
51665;Laerm;37751;52.408;12.536;2023-06-26T03:50:23;65.44;53.91;78.10;;
51665;Laerm;37751;52.408;12.536;2023-06-26T03:52:51;63.23;51.17;73.42;;
51665;Laerm;37751;52.408;12.536;2023-06-26T03:55:19;63.72;50.88;75.28;;
51665;Laerm;37751;52.408;12.536;2023-06-26T03:57:47;63.70;51.11;71.77;;
51665;Laerm;37751;52.408;12.536;2023-06-26T04:00:15;63.76;47.89;73.61;;
51665;Laerm;37751;52.408;12.536;2023-06-26T04:02:43;66.39;53.84;80.75;;
51665;Laerm;37751;52.408;12.536;2023-06-26T04:05:12;65.77;51.69;73.83;;
51665;Laerm;37751;52.408;12.536;2023-06-26T04:07:40;63.32;51.73;71.00;;
51665;Laerm;37751;52.408;12.536;2023-06-26T04:10:08;64.48;49.71;76.68;;
51665;Laerm;37751;52.408;12.536;2023-06-26T04:12:36;63.89;53.28;76.16;;
51665;Laerm;37751;52.408;12.536;2023-06-26T04:15:05;63.42;49.84;74.28;;
51665;Laerm;37751;52.408;12.536;2023-06-26T04:17:33;63.41;50.25;72.74;;
51665;Laerm;37751;52.408;12.536;2023-06-26T04:20:01;64.08;50.75;72.32;;
51665;Laerm;37751;52.408;12.536;2023-06-26T04:22:29;65.00;51.94;73.46;;
51665;Laerm;37751;52.408;12.536;2023-06-26T04:24:57;63.74;48.02;72.35;;
51665;Laerm;37751;52.408;12.536;2023-06-26T04:27:25;63.89;49.40;72.66;;
51665;Laerm;37751;52.408;12.536;2023-06-26T04:29:52;63.55;53.51;73.70;;
51665;Laerm;37751;52.408;12.536;2023-06-26T04:32:20;65.39;52.77;76.78;;
51665;Laerm;37751;52.408;12.536;2023-06-26T04:34:49;65.11;48.18;74.03;;
51665;Laerm;37751;52.408;12.536;2023-06-26T04:37:16;64.70;53.06;85.03;;
51665;Laerm;37751;52.408;12.536;2023-06-26T04:39:44;67.38;51.18;81.79;;
51665;Laerm;37751;52.408;12.536;2023-06-26T04:42:12;64.24;50.33;72.57;;
51665;Laerm;37751;52.408;12.536;2023-06-26T04:44:40;63.68;52.59;73.86;;
51665;Laerm;37751;52.408;12.536;2023-06-26T04:47:09;64.70;55.02;80.73;;
51665;Laerm;37751;52.408;12.536;2023-06-26T04:49:37;63.94;52.04;72.44;;
51665;Laerm;37751;52.408;12.536;2023-06-26T04:52:06;63.72;51.58;75.51;;
51665;Laerm;37751;52.408;12.536;2023-06-26T04:54:34;63.99;54.49;73.29;;
51665;Laerm;37751;52.408;12.536;2023-06-26T04:57:01;65.06;50.82;75.12;;
51665;Laerm;37751;52.408;12.536;2023-06-26T04:59:29;64.33;49.40;80.37;;
51665;Laerm;37751;52.408;12.536;2023-06-26T05:01:57;65.25;52.17;84.04;;
51665;Laerm;37751;52.408;12.536;2023-06-26T05:04:25;64.87;54.19;75.68;;
51665;Laerm;37751;52.408;12.536;2023-06-26T05:06:54;63.08;51.59;77.05;;
51665;Laerm;37751;52.408;12.536;2023-06-26T05:09:22;64.68;50.43;78.36;;
51665;Laerm;37751;52.408;12.536;2023-06-26T05:11:49;64.53;53.16;71.83;;
51665;Laerm;37751;52.408;12.536;2023-06-26T05:14:17;63.77;52.85;74.04;;
51665;Laerm;37751;52.408;12.536;2023-06-26T05:16:48;64.14;51.82;76.99;;
51665;Laerm;37751;52.408;12.536;2023-06-26T05:19:17;66.20;52.46;82.58;;
51665;Laerm;37751;52.408;12.536;2023-06-26T05:21:46;63.56;50.75;74.57;;
51665;Laerm;37751;52.408;12.536;2023-06-26T05:24:15;65.22;50.86;79.31;;
51665;Laerm;37751;52.408;12.536;2023-06-26T05:26:44;64.62;51.61;75.36;;
51665;Laerm;37751;52.408;12.536;2023-06-26T05:29:12;64.37;50.89;79.77;;
51665;Laerm;37751;52.408;12.536;2023-06-26T05:31:41;65.05;54.10;77.08;;
51665;Laerm;37751;52.408;12.536;2023-06-26T05:34:10;67.48;57.50;78.28;;
51665;Laerm;37751;52.408;12.536;2023-06-26T05:36:41;65.16;52.01;76.80;;
51665;Laerm;37751;52.408;12.536;2023-06-26T05:39:11;63.90;49.78;72.97;;
51665;Laerm;37751;52.408;12.536;2023-06-26T05:41:39;63.74;50.35;72.49;;
51665;Laerm;37751;52.408;12.536;2023-06-26T05:44:07;63.98;51.16;74.48;;
51665;Laerm;37751;52.408;12.536;2023-06-26T05:46:35;66.51;51.86;92.88;;
51665;Laerm;37751;52.408;12.536;2023-06-26T05:49:02;69.99;53.01;103.71;;
51665;Laerm;37751;52.408;12.536;2023-06-26T05:51:31;66.77;55.96;81.52;;
51665;Laerm;37751;52.408;12.536;2023-06-26T05:54:00;63.69;51.19;91.75;;
51665;Laerm;37751;52.408;12.536;2023-06-26T05:56:28;64.05;48.10;74.26;;
51665;Laerm;37751;52.408;12.536;2023-06-26T05:58:57;64.32;54.47;75.06;;
51665;Laerm;37751;52.408;12.536;2023-06-26T06:01:25;66.94;53.39;90.34;;
51665;Laerm;37751;52.408;12.536;2023-06-26T06:03:53;68.09;55.63;84.27;;
51665;Laerm;37751;52.408;12.536;2023-06-26T06:06:21;64.67;49.84;73.93;;
51665;Laerm;37751;52.408;12.536;2023-06-26T06:08:49;64.14;52.63;73.77;;
51665;Laerm;37751;52.408;12.536;2023-06-26T06:11:17;63.46;49.10;72.40;;
51665;Laerm;37751;52.408;12.536;2023-06-26T06:13:45;66.87;49.77;79.01;;
51665;Laerm;37751;52.408;12.536;2023-06-26T06:16:13;64.36;54.74;78.14;;
51665;Laerm;37751;52.408;12.536;2023-06-26T06:18:41;64.01;55.59;70.35;;
51665;Laerm;37751;52.408;12.536;2023-06-26T06:21:09;64.47;52.25;75.22;;
51665;Laerm;37751;52.408;12.536;2023-06-26T06:23:36;64.68;54.25;77.97;;
51665;Laerm;37751;52.408;12.536;2023-06-26T06:26:05;65.03;52.98;74.21;;
51665;Laerm;37751;52.408;12.536;2023-06-26T06:28:33;65.54;50.53;87.75;;
51665;Laerm;37751;52.408;12.536;2023-06-26T06:31:01;64.39;52.62;81.36;;
51665;Laerm;37751;52.408;12.536;2023-06-26T06:33:31;62.53;52.72;74.86;;
51665;Laerm;37751;52.408;12.536;2023-06-26T06:35:59;64.23;53.45;78.70;;
51665;Laerm;37751;52.408;12.536;2023-06-26T06:38:27;63.26;53.26;71.82;;
51665;Laerm;37751;52.408;12.536;2023-06-26T06:40:55;63.26;54.63;74.78;;
51665;Laerm;37751;52.408;12.536;2023-06-26T06:43:24;63.97;54.61;74.30;;
51665;Laerm;37751;52.408;12.536;2023-06-26T06:45:52;64.69;52.14;79.88;;
51665;Laerm;37751;52.408;12.536;2023-06-26T06:48:20;63.41;51.85;73.77;;
51665;Laerm;37751;52.408;12.536;2023-06-26T06:50:47;62.67;51.48;71.51;;
51665;Laerm;37751;52.408;12.536;2023-06-26T06:53:15;64.06;54.18;76.15;;
51665;Laerm;37751;52.408;12.536;2023-06-26T06:55:43;62.71;52.16;71.26;;
51665;Laerm;37751;52.408;12.536;2023-06-26T06:58:11;64.70;49.84;76.05;;
51665;Laerm;37751;52.408;12.536;2023-06-26T07:00:39;63.49;53.83;70.35;;
51665;Laerm;37751;52.408;12.536;2023-06-26T07:03:07;65.19;53.70;79.76;;
51665;Laerm;37751;52.408;12.536;2023-06-26T07:05:35;63.00;47.97;73.19;;
51665;Laerm;37751;52.408;12.536;2023-06-26T07:08:04;65.71;54.47;75.40;;
51665;Laerm;37751;52.408;12.536;2023-06-26T07:10:32;64.29;55.38;75.87;;
51665;Laerm;37751;52.408;12.536;2023-06-26T07:13:00;63.30;52.93;78.37;;
51665;Laerm;37751;52.408;12.536;2023-06-26T07:15:28;64.00;53.19;73.28;;
51665;Laerm;37751;52.408;12.536;2023-06-26T07:17:56;61.40;49.76;73.66;;
51665;Laerm;37751;52.408;12.536;2023-06-26T07:20:24;67.26;53.43;93.30;;
51665;Laerm;37751;52.408;12.536;2023-06-26T07:22:58;66.94;53.24;88.41;;
51665;Laerm;37751;52.408;12.536;2023-06-26T07:25:30;64.48;53.72;74.05;;
51665;Laerm;37751;52.408;12.536;2023-06-26T07:27:58;63.77;55.02;72.69;;
51665;Laerm;37751;52.408;12.536;2023-06-26T07:30:31;64.31;50.92;74.36;;
51665;Laerm;37751;52.408;12.536;2023-06-26T07:33:02;63.95;51.92;74.20;;
51665;Laerm;37751;52.408;12.536;2023-06-26T07:35:30;63.30;50.58;71.70;;
51665;Laerm;37751;52.408;12.536;2023-06-26T07:38:01;63.68;50.19;73.21;;
51665;Laerm;37751;52.408;12.536;2023-06-26T07:40:32;67.42;52.28;84.57;;
51665;Laerm;37751;52.408;12.536;2023-06-26T07:43:10;63.72;51.87;71.21;;
51665;Laerm;37751;52.408;12.536;2023-06-26T07:45:41;64.63;52.10;75.93;;
51665;Laerm;37751;52.408;12.536;2023-06-26T07:48:09;64.69;53.19;79.65;;
51665;Laerm;37751;52.408;12.536;2023-06-26T07:50:37;63.38;51.49;72.18;;
51665;Laerm;37751;52.408;12.536;2023-06-26T07:53:08;65.68;50.12;81.46;;
51665;Laerm;37751;52.408;12.536;2023-06-26T07:55:40;65.09;54.50;76.11;;
51665;Laerm;37751;52.408;12.536;2023-06-26T07:58:33;63.88;52.13;80.62;;
51665;Laerm;37751;52.408;12.536;2023-06-26T08:01:09;63.50;53.17;72.25;;
51665;Laerm;37751;52.408;12.536;2023-06-26T08:03:37;63.58;52.70;76.22;;
51665;Laerm;37751;52.408;12.536;2023-06-26T08:06:07;63.32;50.97;71.57;;
51665;Laerm;37751;52.408;12.536;2023-06-26T08:08:39;64.71;54.09;73.29;;
51665;Laerm;37751;52.408;12.536;2023-06-26T08:11:09;64.83;52.96;78.99;;
51665;Laerm;37751;52.408;12.536;2023-06-26T08:13:37;65.12;52.37;78.07;;
51665;Laerm;37751;52.408;12.536;2023-06-26T08:16:08;63.19;53.38;71.80;;
51665;Laerm;37751;52.408;12.536;2023-06-26T08:18:39;64.56;55.80;73.66;;
51665;Laerm;37751;52.408;12.536;2023-06-26T08:21:07;64.17;52.76;72.56;;
51665;Laerm;37751;52.408;12.536;2023-06-26T08:23:39;65.16;50.36;87.27;;
51665;Laerm;37751;52.408;12.536;2023-06-26T08:26:08;62.91;53.68;89.66;;
51665;Laerm;37751;52.408;12.536;2023-06-26T08:28:36;63.19;49.61;75.07;;
51665;Laerm;37751;52.408;12.536;2023-06-26T08:31:08;63.15;52.17;73.24;;
51665;Laerm;37751;52.408;12.536;2023-06-26T08:33:39;66.95;53.98;82.48;;
51665;Laerm;37751;52.408;12.536;2023-06-26T08:36:18;65.90;54.43;78.65;;
51665;Laerm;37751;52.408;12.536;2023-06-26T08:38:59;66.54;51.92;99.74;;
51665;Laerm;37751;52.408;12.536;2023-06-26T08:42:00;63.20;54.21;73.49;;
51665;Laerm;37751;52.408;12.536;2023-06-26T08:44:50;64.67;52.97;83.34;;
51665;Laerm;37751;52.408;12.536;2023-06-26T08:47:37;67.72;57.04;87.27;;
51665;Laerm;37751;52.408;12.536;2023-06-26T08:50:13;64.81;55.95;83.65;;
51665;Laerm;37751;52.408;12.536;2023-06-26T08:55:45;64.56;49.80;76.40;;
51665;Laerm;37751;52.408;12.536;2023-06-26T08:58:16;63.61;52.61;73.32;;
51665;Laerm;37751;52.408;12.536;2023-06-26T09:00:48;64.96;54.85;84.41;;
51665;Laerm;37751;52.408;12.536;2023-06-26T09:03:20;64.32;54.08;74.38;;
51665;Laerm;37751;52.408;12.536;2023-06-26T09:05:49;64.45;52.30;75.53;;
51665;Laerm;37751;52.408;12.536;2023-06-26T09:08:19;63.59;55.20;73.03;;
51665;Laerm;37751;52.408;12.536;2023-06-26T09:10:53;63.93;53.02;77.42;;
51665;Laerm;37751;52.408;12.536;2023-06-26T09:13:39;62.98;49.08;74.16;;
51665;Laerm;37751;52.408;12.536;2023-06-26T09:16:40;61.88;50.23;71.49;;
51665;Laerm;37751;52.408;12.536;2023-06-26T09:19:39;65.30;52.84;97.29;;
51665;Laerm;37751;52.408;12.536;2023-06-26T09:22:19;64.14;50.93;74.25;;
51665;Laerm;37751;52.408;12.536;2023-06-26T09:24:59;66.28;48.55;82.03;;
51665;Laerm;37751;52.408;12.536;2023-06-26T09:27:44;65.64;53.34;87.48;;
51665;Laerm;37751;52.408;12.536;2023-06-26T09:30:19;71.53;52.39;95.11;;
51665;Laerm;37751;52.408;12.536;2023-06-26T09:32:48;108.13;54.13;113.95;;
51665;Laerm;37751;52.408;12.536;2023-06-26T09:35:27;63.94;52.46;92.15;;
51665;Laerm;37751;52.408;12.536;2023-06-26T09:38:01;72.22;55.08;107.00;;
51665;Laerm;37751;52.408;12.536;2023-06-26T09:40:49;65.03;53.03;79.57;;
51665;Laerm;37751;52.408;12.536;2023-06-26T09:43:18;65.19;55.24;90.20;;
51665;Laerm;37751;52.408;12.536;2023-06-26T09:45:49;63.84;53.39;90.16;;
51665;Laerm;37751;52.408;12.536;2023-06-26T09:48:20;96.57;51.95;112.27;;
51665;Laerm;37751;52.408;12.536;2023-06-26T09:51:00;87.01;6.00;112.23;;
51665;Laerm;37751;52.408;12.536;2023-06-26T09:53:51;85.10;51.26;108.43;;
51665;Laerm;37751;52.408;12.536;2023-06-26T09:56:19;75.34;52.63;107.97;;
51665;Laerm;37751;52.408;12.536;2023-06-26T09:58:50;63.36;52.43;73.49;;
51665;Laerm;37751;52.408;12.536;2023-06-26T10:01:45;98.98;53.24;108.07;;
51665;Laerm;37751;52.408;12.536;2023-06-26T10:04:45;95.36;53.17;102.24;;
51665;Laerm;37751;52.408;12.536;2023-06-26T10:07:16;98.15;51.20;106.57;;
51665;Laerm;37751;52.408;12.536;2023-06-26T10:09:48;63.79;50.75;87.23;;
51665;Laerm;37751;52.408;12.536;2023-06-26T10:12:30;64.37;50.51;77.69;;
51665;Laerm;37751;52.408;12.536;2023-06-26T10:15:41;62.70;49.67;72.58;;
51665;Laerm;37751;52.408;12.536;2023-06-26T10:18:39;64.51;49.73;77.50;;
51665;Laerm;37751;52.408;12.536;2023-06-26T10:21:20;64.20;50.96;74.79;;
51665;Laerm;37751;52.408;12.536;2023-06-26T10:23:53;64.23;52.50;74.20;;
51665;Laerm;37751;52.408;12.536;2023-06-26T10:26:44;64.88;55.99;76.00;;
51665;Laerm;37751;52.408;12.536;2023-06-26T10:29:20;63.24;53.16;75.88;;
51665;Laerm;37751;52.408;12.536;2023-06-26T10:32:29;70.11;52.65;89.87;;
51665;Laerm;37751;52.408;12.536;2023-06-26T10:35:20;63.55;52.83;71.93;;
51665;Laerm;37751;52.408;12.536;2023-06-26T10:38:08;68.91;54.25;92.38;;
51665;Laerm;37751;52.408;12.536;2023-06-26T10:40:48;63.57;51.37;71.86;;
51665;Laerm;37751;52.408;12.536;2023-06-26T10:43:18;64.54;49.61;75.50;;
51665;Laerm;37751;52.408;12.536;2023-06-26T10:45:54;63.66;49.20;75.46;;
51665;Laerm;37751;52.408;12.536;2023-06-26T10:48:31;64.23;54.13;75.93;;
51665;Laerm;37751;52.408;12.536;2023-06-26T10:51:16;63.10;51.58;73.18;;
51665;Laerm;37751;52.408;12.536;2023-06-26T10:53:55;64.11;51.31;87.20;;
51665;Laerm;37751;52.408;12.536;2023-06-26T10:56:48;64.70;52.80;74.13;;
51665;Laerm;37751;52.408;12.536;2023-06-26T10:59:21;65.73;53.79;81.03;;
51665;Laerm;37751;52.408;12.536;2023-06-26T11:02:10;64.01;53.48;75.39;;
51665;Laerm;37751;52.408;12.536;2023-06-26T11:04:59;64.95;53.57;75.04;;
51665;Laerm;37751;52.408;12.536;2023-06-26T11:08:04;64.15;53.33;75.24;;
51665;Laerm;37751;52.408;12.536;2023-06-26T11:11:06;63.31;53.76;70.90;;
51665;Laerm;37751;52.408;12.536;2023-06-26T11:13:40;67.13;55.02;79.97;;
51665;Laerm;37751;52.408;12.536;2023-06-26T11:16:19;65.34;55.52;75.97;;
51665;Laerm;37751;52.408;12.536;2023-06-26T11:18:47;64.60;52.67;81.37;;
51665;Laerm;37751;52.408;12.536;2023-06-26T11:21:21;84.00;54.60;100.25;;
51665;Laerm;37751;52.408;12.536;2023-06-26T11:23:51;66.25;54.11;82.47;;
51665;Laerm;37751;52.408;12.536;2023-06-26T11:26:41;64.35;50.85;82.27;;
51665;Laerm;37751;52.408;12.536;2023-06-26T11:29:15;64.05;50.59;75.71;;
51665;Laerm;37751;52.408;12.536;2023-06-26T11:31:46;63.84;53.11;71.87;;
51665;Laerm;37751;52.408;12.536;2023-06-26T11:54:29;65.34;54.94;76.11;;
51665;Laerm;37751;52.408;12.536;2023-06-26T11:56:59;64.88;51.92;76.17;;
51665;Laerm;37751;52.408;12.536;2023-06-26T11:59:38;65.51;56.64;73.30;;
51665;Laerm;37751;52.408;12.536;2023-06-26T12:02:11;64.10;49.67;72.91;;
51665;Laerm;37751;52.408;12.536;2023-06-26T12:04:45;66.18;54.58;83.44;;
51665;Laerm;37751;52.408;12.536;2023-06-26T12:07:15;63.01;52.89;74.27;;
51665;Laerm;37751;52.408;12.536;2023-06-26T12:09:46;65.19;55.13;78.59;;
51665;Laerm;37751;52.408;12.536;2023-06-26T12:12:18;65.24;55.78;77.21;;
51665;Laerm;37751;52.408;12.536;2023-06-26T12:14:46;65.89;55.35;80.07;;
51665;Laerm;37751;52.408;12.536;2023-06-26T12:17:15;64.50;54.54;75.84;;
51665;Laerm;37751;52.408;12.536;2023-06-26T12:19:45;63.85;50.53;82.94;;
51665;Laerm;37751;52.408;12.536;2023-06-26T12:22:18;65.80;50.30;82.10;;
51665;Laerm;37751;52.408;12.536;2023-06-26T12:24:47;66.03;56.56;81.42;;
51665;Laerm;37751;52.408;12.536;2023-06-26T12:27:18;81.26;58.26;98.82;;
51665;Laerm;37751;52.408;12.536;2023-06-26T12:29:52;75.69;57.11;90.25;;
51665;Laerm;37751;52.408;12.536;2023-06-26T12:32:24;66.34;57.20;87.32;;
51665;Laerm;37751;52.408;12.536;2023-06-26T12:34:56;69.82;58.29;103.15;;
51665;Laerm;37751;52.408;12.536;2023-06-26T12:37:24;65.39;55.31;76.29;;
51665;Laerm;37751;52.408;12.536;2023-06-26T12:39:55;68.55;58.95;94.69;;
51665;Laerm;37751;52.408;12.536;2023-06-26T12:42:27;73.17;64.59;92.47;;
51665;Laerm;37751;52.408;12.536;2023-06-26T12:44:55;75.83;66.96;95.33;;
51665;Laerm;37751;52.408;12.536;2023-06-26T12:47:27;78.59;67.25;91.33;;
51665;Laerm;37751;52.408;12.536;2023-06-26T12:49:55;83.14;73.82;95.44;;
51665;Laerm;37751;52.408;12.536;2023-06-26T12:52:25;86.32;73.67;95.64;;
51665;Laerm;37751;52.408;12.536;2023-06-26T12:54:55;84.46;68.98;95.13;;
51665;Laerm;37751;52.408;12.536;2023-06-26T12:57:25;82.70;73.66;95.71;;
51665;Laerm;37751;52.408;12.536;2023-06-26T12:59:53;75.61;72.61;90.45;;
51665;Laerm;37751;52.408;12.536;2023-06-26T13:02:21;87.74;74.61;96.87;;
51665;Laerm;37751;52.408;12.536;2023-06-26T13:04:49;88.53;74.66;96.31;;
51665;Laerm;37751;52.408;12.536;2023-06-26T13:07:17;89.30;75.70;96.92;;
51665;Laerm;37751;52.408;12.536;2023-06-26T13:09:46;95.46;78.77;109.46;;
51665;Laerm;37751;52.408;12.536;2023-06-26T13:12:16;94.32;78.02;107.79;;
51665;Laerm;37751;52.408;12.536;2023-06-26T13:14:43;95.93;73.92;111.27;;
51665;Laerm;37751;52.408;12.536;2023-06-26T13:17:12;105.88;68.24;113.86;;
51665;Laerm;37751;52.408;12.536;2023-06-26T13:19:50;102.50;58.85;113.05;;
51665;Laerm;37751;52.408;12.536;2023-06-26T13:22:30;67.39;55.58;100.85;;
51665;Laerm;37751;52.408;12.536;2023-06-26T13:24:58;63.55;54.47;72.49;;
51665;Laerm;37751;52.408;12.536;2023-06-26T13:27:26;65.93;52.87;81.05;;
51665;Laerm;37751;52.408;12.536;2023-06-26T13:29:54;64.01;55.80;73.60;;
51665;Laerm;37751;52.408;12.536;2023-06-26T13:32:21;64.01;55.41;75.29;;
51665;Laerm;37751;52.408;12.536;2023-06-26T13:34:49;66.95;50.83;85.58;;
51665;Laerm;37751;52.408;12.536;2023-06-26T13:37:17;65.92;58.52;75.65;;
51665;Laerm;37751;52.408;12.536;2023-06-26T13:39:45;64.24;55.81;75.86;;
51665;Laerm;37751;52.408;12.536;2023-06-26T13:42:18;64.45;53.22;79.98;;
51665;Laerm;37751;52.408;12.536;2023-06-26T13:44:46;64.62;54.55;73.87;;
51665;Laerm;37751;52.408;12.536;2023-06-26T13:47:28;64.68;54.86;76.71;;
51665;Laerm;37751;52.408;12.536;2023-06-26T13:49:56;63.44;56.18;74.72;;
51665;Laerm;37751;52.408;12.536;2023-06-26T13:52:24;66.15;58.40;79.09;;
51665;Laerm;37751;52.408;12.536;2023-06-26T13:54:52;68.00;60.51;78.34;;
51665;Laerm;37751;52.408;12.536;2023-06-26T13:57:20;66.61;60.28;74.95;;
51665;Laerm;37751;52.408;12.536;2023-06-26T13:59:50;65.92;59.35;73.19;;
51665;Laerm;37751;52.408;12.536;2023-06-26T14:02:17;65.69;57.80;79.03;;
51665;Laerm;37751;52.408;12.536;2023-06-26T14:04:46;65.99;58.30;87.23;;
51665;Laerm;37751;52.408;12.536;2023-06-26T14:07:14;69.62;57.93;96.49;;
51665;Laerm;37751;52.408;12.536;2023-06-26T14:09:42;66.99;58.77;96.01;;
51665;Laerm;37751;52.408;12.536;2023-06-26T14:12:09;64.87;57.76;72.63;;
51665;Laerm;37751;52.408;12.536;2023-06-26T14:14:37;66.16;58.03;77.03;;
51665;Laerm;37751;52.408;12.536;2023-06-26T14:17:06;64.59;55.68;74.11;;
51665;Laerm;37751;52.408;12.536;2023-06-26T14:19:36;65.11;54.78;74.18;;
51665;Laerm;37751;52.408;12.536;2023-06-26T14:22:04;65.72;50.85;73.73;;
51665;Laerm;37751;52.408;12.536;2023-06-26T14:24:32;64.44;51.85;78.29;;
51665;Laerm;37751;52.408;12.536;2023-06-26T14:27:00;64.43;53.14;75.74;;
51665;Laerm;37751;52.408;12.536;2023-06-26T14:29:28;64.46;54.68;73.53;;